Time;durP1;ratioP1;P1;durP2;ratioP2;P2;SDS_P1;SDS_P2;PMS_P1;PMS_P2;Temp;Humidity;BMP_temperature;BMP_pressure;BME280_temperature;BME280_humidity;BME280_pressure;Samples;Min_cycle;Max_cycle;Signal;HPM_P1;HPM_P2
2021/01/22 00:02:10;;;;;;;0.30;0.30;;;11.80;98.40;;;;;;4974213;28;20184;-69
2021/01/22 00:04:36;;;;;;;0.30;0.30;;;11.80;98.40;;;;;;4974431;28;20252;-69
2021/01/22 00:07:01;;;;;;;0.30;0.30;;;11.80;98.60;;;;;;4973581;28;20176;-70
2021/01/22 00:09:27;;;;;;;1.70;1.57;;;11.80;98.80;;;;;;4974385;28;20176;-70
2021/01/22 00:11:52;;;;;;;0.30;0.30;;;11.70;98.90;;;;;;4974353;28;20183;-70
2021/01/22 00:14:18;;;;;;;0.30;0.30;;;11.60;98.90;;;;;;4974508;28;20679;-69
2021/01/22 00:16:44;;;;;;;0.30;0.30;;;11.60;99.00;;;;;;4974417;28;20553;-69
2021/01/22 00:19:09;;;;;;;0.30;0.30;;;11.50;99.10;;;;;;4972693;28;20203;-70
2021/01/22 00:21:36;;;;;;;0.33;0.33;;;11.50;99.40;;;;;;4989157;28;20186;-68
2021/01/22 00:24:03;;;;;;;0.30;0.25;;;11.40;99.60;;;;;;4975148;28;20192;-70
2021/01/22 00:26:29;;;;;;;0.30;0.30;;;11.40;99.80;;;;;;4954283;28;20654;-70
2021/01/22 00:28:55;;;;;;;0.30;0.20;;;11.30;99.90;;;;;;4968201;28;20253;-71
2021/01/22 00:31:20;;;;;;;0.30;0.30;;;11.30;99.90;;;;;;4974379;28;20939;-68
2021/01/22 00:33:46;;;;;;;0.30;0.30;;;11.30;99.90;;;;;;4974266;28;20208;-68
2021/01/22 00:36:12;;;;;;;0.30;0.30;;;11.30;99.90;;;;;;4974589;28;20194;-69
2021/01/22 00:38:37;;;;;;;0.30;0.30;;;11.20;99.90;;;;;;4972788;28;20647;-69
2021/01/22 00:41:03;;;;;;;0.30;0.30;;;11.10;99.90;;;;;;4973677;28;20183;-69
2021/01/22 00:43:29;;;;;;;0.30;0.20;;;11.00;99.90;;;;;;4973420;28;20219;-68
2021/01/22 00:45:54;;;;;;;0.30;0.30;;;11.00;99.90;;;;;;4973765;28;20180;-69
2021/01/22 00:48:20;;;;;;;0.30;0.30;;;10.90;99.90;;;;;;4973957;28;20222;-69
2021/01/22 00:50:46;;;;;;;0.30;0.30;;;10.80;99.90;;;;;;4972189;28;20203;-69
2021/01/22 00:53:12;;;;;;;0.30;0.30;;;10.80;99.90;;;;;;4973312;28;20200;-69
2021/01/22 00:55:37;;;;;;;0.30;0.30;;;10.70;99.90;;;;;;4973635;28;20180;-69
2021/01/22 00:58:06;;;;;;;0.30;0.30;;;10.60;99.90;;;;;;4988527;28;20266;-69
2021/01/22 01:00:32;;;;;;;0.30;0.30;;;10.60;99.90;;;;;;4973984;28;20203;-69
2021/01/22 01:02:58;;;;;;;0.30;0.30;;;10.60;99.90;;;;;;4973061;28;20539;-68
2021/01/22 01:05:24;;;;;;;0.30;0.30;;;10.60;99.90;;;;;;4973608;28;20255;-67
2021/01/22 01:07:49;;;;;;;0.30;0.30;;;10.60;99.90;;;;;;4973736;28;20172;-69
2021/01/22 01:10:15;;;;;;;0.30;0.30;;;10.60;99.90;;;;;;4954552;29;20169;-68
2021/01/22 01:12:41;;;;;;;0.30;0.30;;;10.60;99.90;;;;;;4970775;28;20222;-69
2021/01/22 01:15:08;;;;;;;0.30;0.20;;;10.60;99.90;;;;;;4973438;28;20221;-68
2021/01/22 01:17:35;;;;;;;0.30;0.30;;;10.50;99.90;;;;;;4972823;28;20180;-70
2021/01/22 01:20:02;;;;;;;0.30;0.30;;;10.50;99.90;;;;;;4972079;28;20172;-69
2021/01/22 01:22:28;;;;;;;0.30;0.30;;;10.50;99.90;;;;;;4973151;28;20161;-72
2021/01/22 01:24:54;;;;;;;0.40;0.40;;;10.50;99.90;;;;;;4971844;28;20348;-69
2021/01/22 01:27:19;;;;;;;0.30;0.30;;;10.50;99.90;;;;;;4974174;28;20168;-69
2021/01/22 01:29:45;;;;;;;0.30;0.30;;;10.50;99.90;;;;;;4973620;28;20667;-70
2021/01/22 01:32:10;;;;;;;0.30;0.30;;;10.50;99.90;;;;;;4971603;28;20176;-68
2021/01/22 01:34:36;;;;;;;0.30;0.30;;;10.50;99.90;;;;;;4973571;28;20195;-68
2021/01/22 01:37:02;;;;;;;0.30;0.30;;;10.50;99.90;;;;;;4972075;28;20176;-69
2021/01/22 01:39:28;;;;;;;0.30;0.20;;;10.40;99.90;;;;;;4973234;28;20626;-70
2021/01/22 01:41:56;;;;;;;0.30;0.30;;;10.40;99.90;;;;;;4972380;28;20191;-68
2021/01/22 01:44:22;;;;;;;0.30;0.30;;;10.40;99.90;;;;;;4973015;28;20211;-69
2021/01/22 01:46:47;;;;;;;0.30;0.30;;;10.40;99.90;;;;;;4973357;28;20758;-68
2021/01/22 01:49:13;;;;;;;0.30;0.27;;;10.40;99.90;;;;;;4973202;28;20176;-69
2021/01/22 01:51:40;;;;;;;0.30;0.20;;;10.40;99.90;;;;;;4972666;28;20176;-69
2021/01/22 01:54:06;;;;;;;0.30;0.30;;;10.50;99.90;;;;;;4972967;28;20203;-70
2021/01/22 01:56:32;;;;;;;0.30;0.30;;;10.50;99.90;;;;;;4971801;28;20198;-69
2021/01/22 01:58:58;;;;;;;0.30;0.30;;;10.60;99.90;;;;;;4971680;28;20253;-70
2021/01/22 02:01:27;;;;;;;0.30;0.30;;;10.60;99.90;;;;;;4972488;28;20184;-70
2021/01/22 02:03:54;;;;;;;0.30;0.30;;;10.70;99.90;;;;;;4971647;28;20200;-68
2021/01/22 02:06:19;;;;;;;0.30;0.20;;;10.70;99.90;;;;;;4972950;28;20161;-69
2021/01/22 02:08:45;;;;;;;0.30;0.30;;;10.70;99.90;;;;;;4972249;28;20483;-70
2021/01/22 02:11:14;;;;;;;0.30;0.30;;;10.70;99.90;;;;;;4972657;28;20309;-74
2021/01/22 02:13:41;;;;;;;0.30;0.30;;;10.70;99.90;;;;;;4973248;28;20289;-68
2021/01/22 02:16:09;;;;;;;0.30;0.20;;;10.70;99.90;;;;;;4971402;28;20269;-70
2021/01/22 02:18:35;;;;;;;0.30;0.30;;;10.70;99.90;;;;;;4972066;28;20591;-69
2021/01/22 02:21:04;;;;;;;0.30;0.28;;;10.80;99.90;;;;;;4972792;28;20267;-69
2021/01/22 02:23:34;;;;;;;0.30;0.30;;;10.70;99.90;;;;;;4986461;28;20213;-68
2021/01/22 02:26:28;;;;;;;0.30;0.30;;;10.70;99.90;;;;;;4972845;28;20218;-67
2021/01/22 02:29:09;;;;;;;0.30;0.30;;;10.70;99.90;;;;;;4985448;28;20531;-69
2021/01/22 02:31:40;;;;;;;0.30;0.30;;;10.70;99.90;;;;;;4971265;28;20580;-69
2021/01/22 02:34:09;;;;;;;0.30;0.28;;;10.80;99.90;;;;;;4972219;28;20274;-70
2021/01/22 02:36:38;;;;;;;0.40;0.40;;;10.80;99.90;;;;;;4972570;28;20538;-69
2021/01/22 02:39:09;;;;;;;0.30;0.20;;;10.90;99.70;;;;;;4972146;28;20180;-71
2021/01/22 02:41:37;;;;;;;0.30;0.30;;;11.00;99.70;;;;;;4972954;28;20176;-68
2021/01/22 02:44:05;;;;;;;0.30;0.30;;;11.00;99.60;;;;;;4973232;28;20628;-69
2021/01/22 02:46:34;;;;;;;0.30;0.30;;;11.00;99.60;;;;;;4973825;28;20168;-68
2021/01/22 02:49:00;;;;;;;0.30;0.30;;;11.00;99.60;;;;;;4974346;28;20176;-69
2021/01/22 02:51:26;;;;;;;0.30;0.20;;;11.00;99.50;;;;;;4972365;28;20244;-70
2021/01/22 02:53:51;;;;;;;0.30;0.30;;;11.00;99.50;;;;;;4972389;28;20196;-68
2021/01/22 02:56:17;;;;;;;0.30;0.30;;;11.00;99.60;;;;;;4972352;28;20179;-70
2021/01/22 02:59:02;;;;;;;0.30;0.30;;;11.00;99.30;;;;;;4972202;28;20263;-69
2021/01/22 03:01:35;;;;;;;0.30;0.22;;;11.00;99.30;;;;;;4972147;28;20163;-70
2021/01/22 03:04:09;;;;;;;0.30;0.30;;;10.90;99.30;;;;;;4972423;28;20670;-69
2021/01/22 03:06:42;;;;;;;0.30;0.30;;;10.90;99.40;;;;;;4970801;28;20645;-69
2021/01/22 03:09:21;;;;;;;0.30;0.30;;;10.90;99.50;;;;;;4972307;28;20221;-69
2021/01/22 03:11:50;;;;;;;0.30;0.30;;;10.90;99.60;;;;;;4970067;28;20176;-69
2021/01/22 03:14:19;;;;;;;0.30;0.30;;;10.80;99.50;;;;;;4972055;28;20550;-69
2021/01/22 03:16:45;;;;;;;0.30;0.30;;;10.80;99.50;;;;;;4971824;28;20204;-69
2021/01/22 03:19:10;;;;;;;0.30;0.30;;;10.80;99.50;;;;;;4971946;28;20210;-67
2021/01/22 03:21:36;;;;;;;0.30;0.20;;;10.70;99.60;;;;;;4971212;28;20411;-72
2021/01/22 03:24:02;;;;;;;0.30;0.30;;;10.70;99.60;;;;;;4971276;28;20212;-69
2021/01/22 03:26:28;;;;;;;0.30;0.20;;;10.60;99.60;;;;;;4971795;28;20175;-69
2021/01/22 03:28:53;;;;;;;0.40;0.40;;;10.50;99.70;;;;;;4971238;28;20184;-69
2021/01/22 03:31:21;;;;;;;0.30;0.30;;;10.50;99.90;;;;;;4971124;28;20188;-69
2021/01/22 03:33:47;;;;;;;0.30;0.30;;;10.40;99.90;;;;;;4971338;28;20689;-69
2021/01/22 03:36:13;;;;;;;0.30;0.20;;;10.30;99.90;;;;;;4971584;28;20259;-69
2021/01/22 03:38:39;;;;;;;1.40;0.60;;;10.20;99.90;;;;;;4971006;28;20432;-69
2021/01/22 03:41:04;;;;;;;0.30;0.30;;;10.10;99.90;;;;;;4971537;28;20245;-69
2021/01/22 03:43:30;;;;;;;0.30;0.30;;;10.10;99.90;;;;;;4970807;28;20218;-69
2021/01/22 03:45:56;;;;;;;0.30;0.30;;;10.10;99.90;;;;;;4971721;28;20168;-69
2021/01/22 03:48:21;;;;;;;0.30;0.30;;;10.00;99.90;;;;;;4971141;28;20665;-69
2021/01/22 03:50:48;;;;;;;0.30;0.30;;;10.00;99.90;;;;;;4971477;28;20168;-70
2021/01/22 03:53:14;;;;;;;0.30;0.30;;;9.90;99.90;;;;;;4970840;28;20294;-68
2021/01/22 03:55:39;;;;;;;0.30;0.30;;;9.90;99.90;;;;;;4971483;28;20257;-69
2021/01/22 03:58:05;;;;;;;0.30;0.30;;;9.90;99.90;;;;;;4971432;28;20184;-69
2021/01/22 04:00:31;;;;;;;0.30;0.30;;;9.90;99.90;;;;;;4972592;28;20233;-69
2021/01/22 04:02:57;;;;;;;0.30;0.30;;;10.00;99.90;;;;;;4970490;28;20689;-70
2021/01/22 04:05:23;;;;;;;0.30;0.30;;;10.00;99.90;;;;;;4971324;28;20408;-69
2021/01/22 04:07:49;;;;;;;0.30;0.30;;;10.00;99.90;;;;;;4971039;28;20182;-69
2021/01/22 04:10:15;;;;;;;0.30;0.30;;;10.10;99.80;;;;;;4971463;28;20540;-69
2021/01/22 04:12:40;;;;;;;0.30;0.30;;;10.10;99.70;;;;;;4970788;28;20203;-69
2021/01/22 04:15:06;;;;;;;0.30;0.30;;;10.20;99.50;;;;;;4971001;28;20180;-68
2021/01/22 04:17:33;;;;;;;0.30;0.30;;;10.20;99.50;;;;;;4970834;28;20545;-69
2021/01/22 04:19:59;;;;;;;0.30;0.30;;;10.20;99.30;;;;;;4970928;28;20191;-70
2021/01/22 04:22:24;;;;;;;0.30;0.30;;;10.20;99.30;;;;;;4970664;28;20642;-70
2021/01/22 04:24:50;;;;;;;0.30;0.30;;;10.20;99.30;;;;;;4970762;28;20211;-68
2021/01/22 04:27:16;;;;;;;0.30;0.30;;;10.20;99.30;;;;;;4971859;28;20172;-68
2021/01/22 04:29:42;;;;;;;0.30;0.30;;;10.20;99.20;;;;;;4974008;28;20203;-69
2021/01/22 04:32:07;;;;;;;0.30;0.30;;;10.20;99.30;;;;;;4973953;28;20423;-69
2021/01/22 04:34:34;;;;;;;0.30;0.30;;;10.10;99.30;;;;;;4974247;28;20195;-69
2021/01/22 04:37:00;;;;;;;0.30;0.30;;;10.10;99.20;;;;;;4973920;28;20226;-68
2021/01/22 04:39:26;;;;;;;0.30;0.30;;;10.10;99.30;;;;;;4974290;28;20584;-69
2021/01/22 04:41:52;;;;;;;0.30;0.30;;;10.10;99.10;;;;;;4973822;28;20175;-69
2021/01/22 04:44:18;;;;;;;0.50;0.50;;;10.10;99.00;;;;;;4973527;28;20267;-68
2021/01/22 04:46:45;;;;;;;0.30;0.30;;;10.20;99.00;;;;;;4972413;28;20644;-69
2021/01/22 04:49:11;;;;;;;0.30;0.20;;;10.20;98.90;;;;;;4972703;28;20549;-69
2021/01/22 04:51:38;;;;;;;0.30;0.30;;;10.20;98.90;;;;;;4972372;28;20187;-69
2021/01/22 04:54:38;;;;;;;0.30;0.30;;;10.20;98.80;;;;;;4974040;28;20199;-69
2021/01/22 04:57:06;;;;;;;0.30;0.30;;;10.20;98.80;;;;;;4973884;28;20537;-69
2021/01/22 04:59:48;;;;;;;0.30;0.30;;;10.20;98.70;;;;;;4973990;28;20633;-69
2021/01/22 05:02:14;;;;;;;0.30;0.25;;;10.30;98.50;;;;;;4973452;28;20688;-69
2021/01/22 05:04:40;;;;;;;0.30;0.30;;;10.30;98.50;;;;;;4973499;28;20235;-68
2021/01/22 05:07:12;;;;;;;0.30;0.30;;;10.30;98.60;;;;;;4973446;28;20759;-69
2021/01/22 05:09:40;;;;;;;0.30;0.30;;;10.30;98.60;;;;;;4973801;28;20180;-68
2021/01/22 05:12:07;;;;;;;0.35;0.35;;;10.30;98.80;;;;;;4973529;28;20169;-68
2021/01/22 05:14:36;;;;;;;0.30;0.30;;;10.30;98.70;;;;;;4973637;28;20673;-68
2021/01/22 05:17:08;;;;;;;0.30;0.20;;;10.30;98.80;;;;;;4973495;28;20198;-69
2021/01/22 05:19:36;;;;;;;0.30;0.30;;;10.30;98.70;;;;;;4973370;28;20172;-68
2021/01/22 05:22:03;;;;;;;0.30;0.30;;;10.40;98.60;;;;;;4988115;28;20242;-70
2021/01/22 05:24:30;;;;;;;0.30;0.20;;;10.40;98.60;;;;;;4973309;28;20196;-67
2021/01/22 05:27:13;;;;;;;0.30;0.30;;;10.40;98.60;;;;;;4973704;28;20248;-70
2021/01/22 05:29:41;;;;;;;0.30;0.30;;;10.40;98.70;;;;;;4974071;28;20188;-69
2021/01/22 05:32:31;;;;;;;0.30;0.20;;;10.40;98.90;;;;;;4974520;28;20168;-68
2021/01/22 05:34:57;;;;;;;0.30;0.30;;;10.40;98.90;;;;;;4973398;28;20228;-69
2021/01/22 05:37:24;;;;;;;0.30;0.30;;;10.50;99.00;;;;;;4972698;28;20252;-69
2021/01/22 05:40:09;;;;;;;0.30;0.30;;;10.50;99.00;;;;;;4972161;28;20176;-69
2021/01/22 05:43:04;;;;;;;0.40;0.40;;;10.50;99.00;;;;;;4972714;28;20183;-69
2021/01/22 05:45:37;;;;;;;0.30;0.30;;;10.50;99.10;;;;;;4980508;28;20189;-69
2021/01/22 05:48:03;;;;;;;0.30;0.30;;;10.50;99.20;;;;;;4954055;29;20185;-69
2021/01/22 05:50:49;;;;;;;0.30;0.30;;;10.50;99.30;;;;;;4964209;28;20172;-68
2021/01/22 05:53:19;;;;;;;0.30;0.30;;;10.40;99.30;;;;;;4972883;28;20196;-68
2021/01/22 05:55:50;;;;;;;0.30;0.30;;;10.40;99.40;;;;;;4971640;28;20186;-67
2021/01/22 05:58:32;;;;;;;0.30;0.30;;;10.40;99.30;;;;;;4972808;28;20184;-69
2021/01/22 06:01:07;;;;;;;0.30;0.30;;;10.40;99.50;;;;;;4972896;28;20256;-69
2021/01/22 06:03:33;;;;;;;0.30;0.30;;;10.40;99.60;;;;;;4971302;28;20754;-68
2021/01/22 06:05:59;;;;;;;0.30;0.30;;;10.40;99.50;;;;;;4972445;28;20190;-68
2021/01/22 06:08:25;;;;;;;0.30;0.30;;;10.40;99.50;;;;;;4972990;28;20168;-68
2021/01/22 06:10:52;;;;;;;0.30;0.30;;;10.50;99.50;;;;;;4971577;28;20176;-69
2021/01/22 06:13:25;;;;;;;0.30;0.20;;;10.40;99.40;;;;;;4972336;28;20208;-70
2021/01/22 06:15:55;;;;;;;0.30;0.28;;;10.50;99.40;;;;;;4972340;28;20263;-70
2021/01/22 06:18:30;;;;;;;0.30;0.30;;;10.50;99.40;;;;;;4972875;28;20172;-69
2021/01/22 06:21:33;;;;;;;0.30;0.30;;;10.50;99.30;;;;;;4972304;28;20262;-69
2021/01/22 06:24:04;;;;;;;0.30;0.30;;;10.50;99.30;;;;;;5002575;28;20250;-69
2021/01/22 06:26:35;;;;;;;0.30;0.30;;;10.50;99.40;;;;;;4972136;28;20180;-70
2021/01/22 06:29:03;;;;;;;0.30;0.20;;;10.50;99.40;;;;;;4971288;28;20172;-69
2021/01/22 06:31:30;;;;;;;0.30;0.30;;;10.50;99.30;;;;;;4971923;28;20190;-68
2021/01/22 06:33:57;;;;;;;0.30;0.30;;;10.60;99.30;;;;;;4972444;28;20281;-68
2021/01/22 06:36:23;;;;;;;0.30;0.30;;;10.60;99.30;;;;;;4971002;28;20176;-68
2021/01/22 06:38:51;;;;;;;0.30;0.20;;;10.50;99.20;;;;;;4971323;28;20206;-70
2021/01/22 06:41:21;;;;;;;0.30;0.30;;;10.50;99.20;;;;;;4970084;28;20177;-71
2021/01/22 06:43:49;;;;;;;0.30;0.30;;;10.50;99.30;;;;;;4970715;28;20253;-67
2021/01/22 06:46:18;;;;;;;0.30;0.30;;;10.50;99.70;;;;;;4972224;28;20186;-70
2021/01/22 06:48:55;;;;;;;0.30;0.20;;;10.50;99.20;;;;;;4971460;28;20511;-68
2021/01/22 06:51:22;;;;;;;0.30;0.20;;;10.60;99.20;;;;;;4971476;28;20179;-68
2021/01/22 06:54:20;;;;;;;0.30;0.20;;;10.60;99.10;;;;;;4972147;28;20222;-69
2021/01/22 06:56:54;;;;;;;0.30;0.30;;;10.60;99.10;;;;;;4962745;28;20173;-66
2021/01/22 06:59:29;;;;;;;0.30;0.20;;;10.60;99.10;;;;;;4972039;28;20621;-68
2021/01/22 07:01:56;;;;;;;0.85;0.85;;;10.50;99.30;;;;;;4971886;28;20199;-69
2021/01/22 07:04:31;;;;;;;0.55;0.55;;;10.50;99.30;;;;;;4971653;28;20219;-69
2021/01/22 07:06:58;;;;;;;0.30;0.30;;;10.50;99.30;;;;;;4972362;28;20164;-69
2021/01/22 07:09:48;;;;;;;0.30;0.30;;;10.50;99.20;;;;;;4971315;28;20179;-70
2021/01/22 07:12:37;;;;;;;0.30;0.30;;;10.50;99.20;;;;;;4985668;28;20187;-68
2021/01/22 07:15:24;;;;;;;0.30;0.30;;;10.50;99.20;;;;;;4975817;28;20215;-68
2021/01/22 07:18:00;;;;;;;0.30;0.30;;;10.50;99.20;;;;;;4971634;28;20225;-69
2021/01/22 07:20:28;;;;;;;0.30;0.30;;;10.50;99.10;;;;;;4971559;28;20167;-68
2021/01/22 07:23:01;;;;;;;0.30;0.30;;;10.50;99.20;;;;;;4971930;28;20223;-70
2021/01/22 07:25:40;;;;;;;0.30;0.30;;;10.50;99.10;;;;;;4972652;28;20180;-66
2021/01/22 07:28:22;;;;;;;0.30;0.20;;;10.60;99.10;;;;;;4972060;28;20226;-71
2021/01/22 07:30:48;;;;;;;0.30;0.20;;;10.50;98.80;;;;;;4951285;29;20188;-67
2021/01/22 07:33:26;;;;;;;0.30;0.30;;;10.50;98.80;;;;;;4967132;28;20196;-68
2021/01/22 07:36:10;;;;;;;0.30;0.28;;;10.60;98.80;;;;;;4952464;29;20705;-69
2021/01/22 07:38:38;;;;;;;0.30;0.20;;;10.80;98.70;;;;;;4952276;28;20268;-71
2021/01/22 07:41:06;;;;;;;0.30;0.30;;;10.80;98.40;;;;;;4967174;28;20256;-68
2021/01/22 07:43:31;;;;;;;0.30;0.30;;;10.90;98.40;;;;;;4950991;28;20201;-67
2021/01/22 07:46:23;;;;;;;0.90;0.90;;;11.00;98.20;;;;;;4952548;29;20173;-70
2021/01/22 07:48:50;;;;;;;0.30;0.30;;;11.10;98.10;;;;;;4966837;28;20610;-67
2021/01/22 07:51:38;;;;;;;0.30;0.20;;;11.30;97.80;;;;;;4986376;28;20176;-69
2021/01/22 07:54:04;;;;;;;0.30;0.30;;;11.60;97.60;;;;;;4971512;28;20204;-68
2021/01/22 07:56:36;;;;;;;0.30;0.30;;;11.80;97.00;;;;;;4971490;28;20546;-72
2021/01/22 07:59:02;;;;;;;0.30;0.30;;;12.00;96.70;;;;;;4971154;28;20176;-69
2021/01/22 08:01:28;;;;;;;0.30;0.20;;;12.20;96.70;;;;;;4973612;28;20183;-71
2021/01/22 08:03:54;;;;;;;0.30;0.30;;;12.30;96.30;;;;;;4974568;28;20690;-67
2021/01/22 08:06:20;;;;;;;0.30;0.30;;;12.40;95.80;;;;;;4975045;28;20165;-69
2021/01/22 08:08:47;;;;;;;0.30;0.30;;;12.30;95.60;;;;;;4974425;28;20193;-69
2021/01/22 08:11:20;;;;;;;0.30;0.20;;;12.30;95.80;;;;;;4973921;28;20587;-72
2021/01/22 08:13:46;;;;;;;0.30;0.30;;;12.30;95.80;;;;;;4974535;28;20942;-67
2021/01/22 08:16:15;;;;;;;0.30;0.20;;;12.30;95.80;;;;;;4974243;28;20427;-67
2021/01/22 08:18:50;;;;;;;0.30;0.30;;;12.20;96.00;;;;;;4974657;28;20544;-70
2021/01/22 08:21:16;;;;;;;0.30;0.20;;;12.30;96.00;;;;;;4974395;28;20259;-73
2021/01/22 08:23:44;;;;;;;2.10;0.40;;;12.40;96.00;;;;;;4974002;28;20334;-69
2021/01/22 08:26:11;;;;;;;0.30;0.30;;;12.50;95.80;;;;;;4974866;28;20220;-69
2021/01/22 08:28:39;;;;;;;0.30;0.30;;;12.80;95.60;;;;;;4974621;28;20482;-72
2021/01/22 08:31:14;;;;;;;0.30;0.20;;;13.20;95.20;;;;;;4974307;28;20425;-69
2021/01/22 08:33:40;;;;;;;0.30;0.30;;;13.70;94.50;;;;;;4973848;28;20450;-66
2021/01/22 08:36:06;;;;;;;0.30;0.30;;;14.10;93.90;;;;;;4973136;28;20935;-71
2021/01/22 08:38:33;;;;;;;0.30;0.20;;;14.70;93.40;;;;;;4974465;28;20477;-71
2021/01/22 08:40:59;;;;;;;0.30;0.20;;;15.50;92.80;;;;;;4974228;28;20412;-71
2021/01/22 08:43:25;;;;;;;0.30;0.20;;;16.20;91.80;;;;;;4973626;28;20804;-72
2021/01/22 08:46:05;;;;;;;0.30;0.20;;;16.80;90.50;;;;;;4973984;28;20173;-73
2021/01/22 08:48:31;;;;;;;0.30;0.20;;;17.30;90.30;;;;;;4974109;28;20513;-73
2021/01/22 08:51:03;;;;;;;0.30;0.20;;;17.40;88.10;;;;;;4974270;28;20430;-70
2021/01/22 08:53:29;;;;;;;0.30;0.30;;;17.60;87.70;;;;;;4988604;28;20467;-73
2021/01/22 08:56:15;;;;;;;0.30;0.20;;;17.90;86.60;;;;;;4972275;28;20464;-72
2021/01/22 08:59:09;;;;;;;0.30;0.30;;;18.40;84.70;;;;;;4954598;28;20766;-70
2021/01/22 09:01:52;;;;;;;0.30;0.20;;;18.50;83.70;;;;;;4954073;28;20418;-73
2021/01/22 09:04:22;;;;;;;0.30;0.20;;;18.80;82.70;;;;;;4953008;28;20468;-71
2021/01/22 09:07:01;;;;;;;0.30;0.20;;;19.10;82.60;;;;;;4954491;28;20483;-70
2021/01/22 09:09:47;;;;;;;0.30;0.20;;;19.30;81.70;;;;;;4960050;28;20435;-70
2021/01/22 09:12:30;;;;;;;0.30;0.20;;;19.40;79.60;;;;;;4973221;28;20509;-71
2021/01/22 09:14:57;;;;;;;0.30;0.20;;;19.50;79.00;;;;;;4973929;28;20871;-72
2021/01/22 09:17:32;;;;;;;0.30;0.30;;;19.40;78.30;;;;;;4973526;28;20411;-70
2021/01/22 09:20:12;;;;;;;0.30;0.20;;;19.20;79.10;;;;;;4988784;28;20419;-71
2021/01/22 09:22:38;;;;;;;0.30;0.20;;;19.10;78.90;;;;;;4988266;28;20470;-70
2021/01/22 09:25:07;;;;;;;0.30;0.20;;;18.60;79.50;;;;;;4973233;28;20968;-70
2021/01/22 09:27:37;;;;;;;0.30;0.30;;;18.20;79.90;;;;;;4973484;28;20406;-73
2021/01/22 09:30:08;;;;;;;0.30;0.30;;;17.80;81.30;;;;;;4988464;28;20425;-71
2021/01/22 09:32:34;;;;;;;0.30;0.20;;;17.30;82.40;;;;;;4987990;28;20420;-71
2021/01/22 09:35:00;;;;;;;0.30;0.20;;;16.90;84.50;;;;;;4973479;28;20940;-71
2021/01/22 09:37:26;;;;;;;0.30;0.30;;;16.50;84.40;;;;;;4974551;28;20176;-74
2021/01/22 09:39:51;;;;;;;0.40;0.40;;;16.30;86.10;;;;;;4975006;28;20184;-71
2021/01/22 09:42:20;;;;;;;0.30;0.20;;;16.10;85.60;;;;;;4954072;28;20169;-71
2021/01/22 09:44:45;;;;;;;0.30;0.20;;;16.00;86.70;;;;;;4954177;28;20203;-72
2021/01/22 09:47:11;;;;;;;0.40;0.40;;;15.90;87.20;;;;;;4954017;28;20410;-73
2021/01/22 09:49:37;;;;;;;0.30;0.30;;;15.90;87.60;;;;;;4954022;28;20169;-74
2021/01/22 09:52:02;;;;;;;0.30;0.30;;;16.00;88.10;;;;;;4953578;28;20228;-72
2021/01/22 09:54:31;;;;;;;0.30;0.30;;;16.20;87.20;;;;;;4966587;28;20677;-73
2021/01/22 09:56:57;;;;;;;0.30;0.30;;;16.30;86.90;;;;;;4973221;28;20185;-70
2021/01/22 09:59:23;;;;;;;0.30;0.20;;;16.30;87.30;;;;;;4973201;28;20908;-71
2021/01/22 10:01:49;;;;;;;0.30;0.20;;;16.30;86.90;;;;;;4972456;28;20276;-72
2021/01/22 10:04:14;;;;;;;0.30;0.30;;;16.30;86.40;;;;;;4971899;28;20245;-73
2021/01/22 10:06:40;;;;;;;0.30;0.30;;;16.10;86.20;;;;;;4971843;28;20509;-73
2021/01/22 10:09:09;;;;;;;0.30;0.20;;;15.80;87.30;;;;;;4973106;28;20585;-72
2021/01/22 10:11:39;;;;;;;0.30;0.20;;;15.70;87.80;;;;;;4971331;28;20177;-71
2021/01/22 10:14:05;;;;;;;0.30;0.20;;;15.30;89.10;;;;;;4971588;28;20537;-71
2021/01/22 10:16:31;;;;;;;0.30;0.30;;;15.20;89.20;;;;;;4971405;28;20498;-70
2021/01/22 10:18:58;;;;;;;0.30;0.30;;;15.00;89.90;;;;;;4968710;28;20416;-71
2021/01/22 10:21:24;;;;;;;0.30;0.30;;;14.80;89.90;;;;;;4959243;28;20439;-70
2021/01/22 10:23:52;;;;;;;0.30;0.20;;;14.80;90.40;;;;;;4959981;28;20455;-71
2021/01/22 10:26:22;;;;;;;0.30;0.30;;;14.70;90.50;;;;;;4960632;28;20801;-71
2021/01/22 10:28:49;;;;;;;0.40;0.40;;;14.70;90.80;;;;;;4963156;28;20458;-69
2021/01/22 10:31:15;;;;;;;1.60;0.50;;;14.60;90.90;;;;;;4960038;28;20404;-70
2021/01/22 10:33:41;;;;;;;0.30;0.27;;;14.50;90.70;;;;;;4960851;28;20433;-69
2021/01/22 10:36:10;;;;;;;0.30;0.20;;;14.50;90.70;;;;;;4961189;28;20423;-70
2021/01/22 10:38:36;;;;;;;0.30;0.20;;;14.40;90.80;;;;;;4962433;28;20187;-69
2021/01/22 10:41:02;;;;;;;0.30;0.30;;;14.30;90.70;;;;;;4959920;28;20793;-71
2021/01/22 10:43:28;;;;;;;0.33;0.33;;;14.20;91.20;;;;;;4961750;28;20215;-67
2021/01/22 10:45:54;;;;;;;0.30;0.20;;;14.20;91.70;;;;;;4962265;28;20407;-67
2021/01/22 10:48:20;;;;;;;0.30;0.30;;;14.20;91.90;;;;;;4960757;28;21311;-68
2021/01/22 10:50:48;;;;;;;0.30;0.30;;;14.30;91.70;;;;;;4960186;28;20912;-70
2021/01/22 10:53:14;;;;;;;0.30;0.30;;;14.30;91.30;;;;;;4963872;28;20469;-69
2021/01/22 10:55:40;;;;;;;0.30;0.20;;;14.30;91.60;;;;;;4959229;28;20421;-67
2021/01/22 10:58:05;;;;;;;0.30;0.20;;;14.30;91.80;;;;;;4954030;28;20419;-67
2021/01/22 11:00:34;;;;;;;0.30;0.30;;;14.40;91.50;;;;;;4952852;28;20177;-67
2021/01/22 11:03:01;;;;;;;0.30;0.30;;;14.50;91.60;;;;;;4958789;28;20203;-67
2021/01/22 11:05:26;;;;;;;0.30;0.20;;;14.70;91.40;;;;;;4972061;28;20414;-69
2021/01/22 11:07:52;;;;;;;0.30;0.30;;;15.00;91.10;;;;;;4971939;28;20404;-69
2021/01/22 11:10:18;;;;;;;0.30;0.20;;;15.10;90.70;;;;;;4971545;28;20176;-68
2021/01/22 11:12:43;;;;;;;0.30;0.30;;;15.10;90.90;;;;;;4971714;28;20662;-68
2021/01/22 11:15:09;;;;;;;0.30;0.30;;;15.00;90.40;;;;;;4971715;28;20534;-70
2021/01/22 11:17:38;;;;;;;0.30;0.20;;;14.90;90.80;;;;;;4970803;28;20530;-69
2021/01/22 11:20:05;;;;;;;0.30;0.30;;;14.90;90.80;;;;;;4971580;28;20508;-67
2021/01/22 11:22:31;;;;;;;0.30;0.30;;;14.90;91.00;;;;;;4971337;28;20471;-69
2021/01/22 11:24:57;;;;;;;0.30;0.20;;;14.80;91.10;;;;;;4972357;28;20451;-69
2021/01/22 11:27:23;;;;;;;0.30;0.20;;;14.80;91.30;;;;;;4971658;28;20431;-68
2021/01/22 11:29:51;;;;;;;0.30;0.30;;;14.80;91.00;;;;;;4972023;28;20439;-70
2021/01/22 11:32:17;;;;;;;0.30;0.20;;;14.80;91.10;;;;;;4971533;28;20419;-69
2021/01/22 11:34:43;;;;;;;0.30;0.30;;;14.70;90.80;;;;;;4971558;28;20435;-71
2021/01/22 11:37:09;;;;;;;0.30;0.20;;;14.70;91.00;;;;;;4971529;28;20560;-70
2021/01/22 11:39:36;;;;;;;0.30;0.20;;;14.60;91.00;;;;;;4960315;28;20187;-68
2021/01/22 11:42:04;;;;;;;0.30;0.30;;;14.50;91.10;;;;;;4971382;28;20255;-69
2021/01/22 11:44:29;;;;;;;0.30;0.20;;;14.30;91.40;;;;;;5037125;28;20473;-70
2021/01/22 11:46:55;;;;;;;0.30;0.20;;;14.30;91.50;;;;;;4971636;28;20417;-69
2021/01/22 11:49:21;;;;;;;0.30;0.20;;;14.30;91.60;;;;;;4971410;28;20175;-69
2021/01/22 11:51:46;;;;;;;0.30;0.30;;;14.40;91.50;;;;;;4971201;28;20179;-70
2021/01/22 11:54:12;;;;;;;0.30;0.20;;;14.50;91.90;;;;;;4971501;28;20203;-69
2021/01/22 11:56:38;;;;;;;0.30;0.30;;;14.60;91.40;;;;;;4971616;28;20211;-69
2021/01/22 11:59:03;;;;;;;0.30;0.20;;;14.70;91.10;;;;;;4971423;28;20179;-69
2021/01/22 12:01:29;;;;;;;0.30;0.20;;;14.70;91.20;;;;;;4970717;28;20190;-69
2021/01/22 12:03:55;;;;;;;0.30;0.30;;;14.80;91.20;;;;;;4969461;28;20199;-72
2021/01/22 12:06:21;;;;;;;0.30;0.23;;;14.90;90.90;;;;;;4969945;28;20184;-68
2021/01/22 12:08:48;;;;;;;0.30;0.20;;;14.90;90.60;;;;;;4970898;28;20901;-69
2021/01/22 12:11:13;;;;;;;0.30;0.20;;;14.90;90.60;;;;;;4963046;28;20207;-71
2021/01/22 12:13:39;;;;;;;0.30;0.20;;;14.90;90.50;;;;;;4959310;28;20455;-71
2021/01/22 12:16:05;;;;;;;0.30;0.27;;;14.80;90.30;;;;;;4958503;28;20176;-68
2021/01/22 12:18:31;;;;;;;0.30;0.20;;;14.80;90.40;;;;;;4959616;28;20183;-70
2021/01/22 12:20:56;;;;;;;0.30;0.30;;;14.80;90.30;;;;;;4959173;28;20535;-70
2021/01/22 12:23:22;;;;;;;0.30;0.20;;;14.80;90.30;;;;;;4961143;28;20348;-70
2021/01/22 12:25:48;;;;;;;0.30;0.20;;;14.80;90.20;;;;;;4959867;28;20172;-71
2021/01/22 12:28:34;;;;;;;0.30;0.20;;;14.80;89.80;;;;;;4967694;28;20585;-70
2021/01/22 12:31:11;;;;;;;0.30;0.30;;;14.80;90.10;;;;;;4959067;28;20195;-70
2021/01/22 12:33:37;;;;;;;0.30;0.20;;;14.80;89.10;;;;;;4963714;28;20588;-72
2021/01/22 12:36:05;;;;;;;0.30;0.30;;;14.80;89.10;;;;;;4970023;28;20497;-72
2021/01/22 12:38:30;;;;;;;0.30;0.20;;;14.80;88.60;;;;;;4970580;28;20190;-70
2021/01/22 12:40:56;;;;;;;0.30;0.20;;;14.80;88.00;;;;;;4969853;28;20418;-71
2021/01/22 12:43:22;;;;;;;0.30;0.30;;;14.90;88.00;;;;;;4966235;28;20234;-72
2021/01/22 12:45:47;;;;;;;0.30;0.30;;;15.10;88.10;;;;;;4968922;28;20184;-69
2021/01/22 12:48:13;;;;;;;0.30;0.20;;;15.20;88.40;;;;;;4971559;28;20165;-72
2021/01/22 12:50:41;;;;;;;0.43;0.43;;;15.40;88.30;;;;;;4972202;28;20184;-69
2021/01/22 12:53:07;;;;;;;0.30;0.30;;;15.60;86.70;;;;;;4973016;28;20431;-73
2021/01/22 12:55:33;;;;;;;0.30;0.20;;;15.70;86.30;;;;;;4973438;28;20411;-70
2021/01/22 12:57:59;;;;;;;0.30;0.30;;;15.80;85.40;;;;;;4973446;28;20406;-69